Time;durP1;ratioP1;P1;durP2;ratioP2;P2;SDS_P1;SDS_P2;PMS_P1;PMS_P2;Temp;Humidity;BMP_temperature;BMP_pressure;BME280_temperature;BME280_humidity;BME280_pressure;Samples;Min_cycle;Max_cycle;Signal;HPM_P1;HPM_P2
2021/09/25 00:00:54;;;;;;;6.63;6.20;;;17.80;99.90;;;;;;5064313;28;20705;-68
2021/09/25 00:03:20;;;;;;;6.60;6.20;;;17.80;99.90;;;;;;5055932;28;20587;-68
2021/09/25 00:05:46;;;;;;;7.00;6.47;;;17.80;99.90;;;;;;5050796;28;20181;-69
2021/09/25 00:08:13;;;;;;;6.80;6.30;;;17.80;99.90;;;;;;5051806;28;20227;-68
2021/09/25 00:10:39;;;;;;;7.40;6.60;;;17.80;99.90;;;;;;5050958;28;20170;-69
2021/09/25 00:13:05;;;;;;;6.70;6.30;;;17.80;99.90;;;;;;5052009;28;20452;-69
2021/09/25 00:15:31;;;;;;;7.47;6.87;;;17.80;99.90;;;;;;5050707;28;20420;-68
2021/09/25 00:17:58;;;;;;;6.90;6.40;;;17.80;99.90;;;;;;5051621;28;20467;-68
2021/09/25 00:20:24;;;;;;;6.57;6.17;;;17.90;99.90;;;;;;5051815;28;20470;-68
2021/09/25 00:22:49;;;;;;;6.10;5.70;;;17.80;99.90;;;;;;5049611;28;20392;-68
2021/09/25 00:25:15;;;;;;;6.83;6.23;;;17.90;99.90;;;;;;5051908;28;20265;-68
2021/09/25 00:27:41;;;;;;;6.83;6.27;;;17.80;99.90;;;;;;5051087;28;20182;-69
2021/09/25 00:30:09;;;;;;;5.80;5.27;;;17.80;99.90;;;;;;5056183;28;20443;-68
2021/09/25 00:32:35;;;;;;;6.60;6.10;;;17.80;99.90;;;;;;5071439;28;20247;-75
2021/09/25 00:35:01;;;;;;;6.23;5.73;;;17.80;99.90;;;;;;5071934;28;20395;-68
2021/09/25 00:37:26;;;;;;;6.70;6.30;;;17.80;99.90;;;;;;5071385;28;20423;-68
2021/09/25 00:39:52;;;;;;;6.50;6.10;;;17.70;99.90;;;;;;5070835;28;20176;-68
2021/09/25 00:42:18;;;;;;;6.17;5.57;;;17.70;99.90;;;;;;5071872;28;20177;-68
2021/09/25 00:44:44;;;;;;;7.17;6.67;;;17.80;99.90;;;;;;5069173;28;20617;-69
2021/09/25 00:47:11;;;;;;;6.60;5.93;;;17.70;99.90;;;;;;5035784;28;20226;-68
2021/09/25 00:49:37;;;;;;;7.27;6.77;;;17.70;99.90;;;;;;5031269;28;20208;-75
2021/09/25 00:52:03;;;;;;;6.53;6.13;;;17.70;99.90;;;;;;5034072;28;20538;-68
2021/09/25 00:54:28;;;;;;;7.20;6.70;;;17.80;99.90;;;;;;5035174;28;20198;-68
2021/09/25 00:56:54;;;;;;;7.00;6.50;;;17.70;99.90;;;;;;5034369;28;21123;-68
2021/09/25 00:59:20;;;;;;;8.20;7.43;;;17.70;99.90;;;;;;5017883;28;20258;-68
2021/09/25 01:01:48;;;;;;;7.50;6.90;;;17.70;99.90;;;;;;5017218;28;20205;-68
2021/09/25 01:04:13;;;;;;;7.17;6.67;;;17.70;99.90;;;;;;5035334;28;20789;-68
2021/09/25 01:06:39;;;;;;;8.07;7.47;;;17.70;99.90;;;;;;5034505;28;20409;-70
2021/09/25 01:09:08;;;;;;;7.80;6.43;;;17.70;99.90;;;;;;5035303;28;20176;-68
2021/09/25 01:11:34;;;;;;;7.43;6.93;;;17.70;99.90;;;;;;5034784;28;20575;-68
2021/09/25 01:14:00;;;;;;;6.80;6.30;;;17.70;99.90;;;;;;5034438;28;20421;-68
2021/09/25 01:16:26;;;;;;;7.13;6.50;;;17.70;99.90;;;;;;5043121;28;20177;-68
2021/09/25 01:18:52;;;;;;;7.77;7.17;;;17.70;99.90;;;;;;5054095;28;20427;-68
2021/09/25 01:21:18;;;;;;;7.10;6.50;;;17.70;99.90;;;;;;5055190;28;20196;-68
2021/09/25 01:23:44;;;;;;;7.40;6.80;;;17.70;99.90;;;;;;5054131;28;20317;-68
2021/09/25 01:26:11;;;;;;;6.93;6.43;;;17.70;99.90;;;;;;5054875;28;20435;-68
2021/09/25 01:28:39;;;;;;;7.07;6.67;;;17.70;99.90;;;;;;5054559;28;20412;-75
2021/09/25 01:31:09;;;;;;;6.50;6.00;;;17.60;99.90;;;;;;5049938;28;20417;-68
2021/09/25 01:33:38;;;;;;;8.17;7.37;;;17.60;99.90;;;;;;5034535;28;20965;-68
2021/09/25 01:36:05;;;;;;;7.63;6.80;;;17.60;99.90;;;;;;5034307;28;20524;-68
2021/09/25 01:38:31;;;;;;;7.93;7.00;;;17.60;99.90;;;;;;5034686;28;20460;-68
2021/09/25 01:40:58;;;;;;;7.83;7.20;;;17.60;99.90;;;;;;5041276;28;20415;-68
2021/09/25 01:43:24;;;;;;;7.20;6.67;;;17.50;99.90;;;;;;5045069;28;20425;-68
2021/09/25 01:45:50;;;;;;;6.63;6.20;;;17.50;99.90;;;;;;5036489;28;20459;-68
2021/09/25 01:48:16;;;;;;;7.87;7.27;;;17.50;99.90;;;;;;5054597;28;20800;-68
2021/09/25 01:50:42;;;;;;;7.20;6.70;;;17.50;99.90;;;;;;5053589;28;20768;-73
2021/09/25 01:53:08;;;;;;;7.77;7.17;;;17.50;99.90;;;;;;5054312;28;20444;-69
2021/09/25 01:55:34;;;;;;;7.90;7.20;;;17.50;99.90;;;;;;5054330;28;20431;-68
2021/09/25 01:58:00;;;;;;;7.77;7.17;;;17.50;99.90;;;;;;5053743;28;20397;-69
2021/09/25 02:00:26;;;;;;;7.40;6.80;;;17.50;99.90;;;;;;5054455;28;20177;-68
2021/09/25 02:02:53;;;;;;;7.53;7.00;;;17.50;99.90;;;;;;5052712;28;20420;-69
2021/09/25 02:05:21;;;;;;;7.63;7.03;;;17.50;99.90;;;;;;5054294;28;20896;-69
2021/09/25 02:07:47;;;;;;;8.67;7.77;;;17.50;99.90;;;;;;5053863;28;20409;-69
2021/09/25 02:10:13;;;;;;;9.10;7.57;;;17.50;99.90;;;;;;5054461;28;20920;-68
2021/09/25 02:12:40;;;;;;;9.00;8.10;;;17.50;99.90;;;;;;5053694;28;20539;-71
2021/09/25 02:15:06;;;;;;;9.57;8.77;;;17.50;99.90;;;;;;5032892;28;20420;-68
2021/09/25 02:17:32;;;;;;;8.37;7.73;;;17.50;99.90;;;;;;5034106;28;20432;-68
2021/09/25 02:19:58;;;;;;;8.47;7.87;;;17.50;99.90;;;;;;5033766;28;20429;-68
2021/09/25 02:22:24;;;;;;;9.37;8.57;;;17.50;99.90;;;;;;5033854;28;20456;-68
2021/09/25 02:24:49;;;;;;;9.20;8.40;;;17.50;99.90;;;;;;5033986;28;20460;-68
2021/09/25 02:27:15;;;;;;;8.93;8.10;;;17.50;99.90;;;;;;5035968;28;20610;-68
2021/09/25 02:29:41;;;;;;;10.53;9.73;;;17.50;99.90;;;;;;5035298;28;20174;-76
2021/09/25 02:32:07;;;;;;;9.37;8.67;;;17.50;99.90;;;;;;5025414;28;20206;-68
2021/09/25 02:34:36;;;;;;;9.00;8.30;;;17.50;99.90;;;;;;5050620;28;20189;-68
2021/09/25 02:37:04;;;;;;;9.17;8.37;;;17.50;99.90;;;;;;5052801;28;20453;-68
2021/09/25 02:39:30;;;;;;;9.27;8.40;;;17.50;99.90;;;;;;5053091;28;20416;-68
2021/09/25 02:41:56;;;;;;;9.00;8.20;;;17.50;99.90;;;;;;5052485;28;20468;-68
2021/09/25 02:44:22;;;;;;;10.13;9.13;;;17.40;99.90;;;;;;5052913;28;20444;-68
2021/09/25 02:46:48;;;;;;;9.30;8.50;;;17.40;99.90;;;;;;5052213;28;20233;-68
2021/09/25 02:49:19;;;;;;;9.20;8.40;;;17.40;99.90;;;;;;5031357;28;20175;-68
2021/09/25 02:51:46;;;;;;;8.97;8.27;;;17.40;99.90;;;;;;5032573;28;20495;-75
2021/09/25 02:54:12;;;;;;;8.80;8.00;;;17.40;99.90;;;;;;5033095;28;20945;-68
2021/09/25 02:56:38;;;;;;;9.30;8.40;;;17.40;99.90;;;;;;5032939;28;20556;-68
2021/09/25 02:59:04;;;;;;;8.33;7.57;;;17.40;99.90;;;;;;5032140;28;20764;-68
2021/09/25 03:01:31;;;;;;;9.17;8.43;;;17.40;99.90;;;;;;5033408;28;20420;-68
2021/09/25 03:03:57;;;;;;;9.60;8.70;;;17.30;99.90;;;;;;5032289;28;20802;-68
2021/09/25 03:06:24;;;;;;;9.27;7.90;;;17.30;99.90;;;;;;5032780;28;20404;-68
2021/09/25 03:08:50;;;;;;;9.40;8.40;;;17.30;99.90;;;;;;5031957;28;20414;-68
2021/09/25 03:11:16;;;;;;;9.00;8.20;;;17.40;99.90;;;;;;5044236;28;20459;-68
2021/09/25 03:13:42;;;;;;;9.33;8.53;;;17.30;99.90;;;;;;5052520;28;20404;-71
2021/09/25 03:16:08;;;;;;;9.53;8.73;;;17.40;99.90;;;;;;5032140;28;20428;-68
2021/09/25 03:18:34;;;;;;;8.57;7.83;;;17.30;99.90;;;;;;5052769;28;20766;-68
2021/09/25 03:21:00;;;;;;;9.30;8.60;;;17.40;99.90;;;;;;5051876;28;20172;-68
2021/09/25 03:23:25;;;;;;;9.87;8.97;;;17.40;99.90;;;;;;5052348;28;20230;-67
2021/09/25 03:25:51;;;;;;;9.60;8.70;;;17.40;99.90;;;;;;5051505;28;20250;-68
2021/09/25 03:28:17;;;;;;;9.73;8.93;;;17.40;99.90;;;;;;5052846;28;20832;-68
2021/09/25 03:30:43;;;;;;;9.83;8.90;;;17.40;99.90;;;;;;5052034;28;20182;-67
2021/09/25 03:33:09;;;;;;;9.90;9.00;;;17.30;99.90;;;;;;5034026;28;20216;-68
2021/09/25 03:35:34;;;;;;;11.83;10.67;;;17.30;99.90;;;;;;5031288;28;20221;-68
2021/09/25 03:38:00;;;;;;;10.13;9.20;;;17.30;99.90;;;;;;5031749;28;20174;-68
2021/09/25 03:40:27;;;;;;;11.13;10.03;;;17.40;99.90;;;;;;5032457;28;20174;-68
2021/09/25 03:42:53;;;;;;;10.00;9.10;;;17.40;99.90;;;;;;5031690;28;20248;-68
2021/09/25 03:45:19;;;;;;;10.97;9.57;;;17.40;99.90;;;;;;5032300;28;20452;-68
2021/09/25 03:47:45;;;;;;;9.03;8.33;;;17.40;99.90;;;;;;5031700;28;20183;-76
2021/09/25 03:50:12;;;;;;;9.87;8.97;;;17.40;99.90;;;;;;5031709;28;20425;-68
2021/09/25 03:52:37;;;;;;;9.17;8.30;;;17.40;99.90;;;;;;5032262;28;20464;-68
2021/09/25 03:55:05;;;;;;;9.43;8.63;;;17.50;99.90;;;;;;5031560;28;20891;-68
2021/09/25 03:57:31;;;;;;;11.53;8.97;;;17.50;99.90;;;;;;5032316;28;20162;-68
2021/09/25 03:59:57;;;;;;;10.53;9.60;;;17.50;99.90;;;;;;5031488;28;20919;-68
2021/09/25 04:02:22;;;;;;;10.00;9.00;;;17.50;99.90;;;;;;5046167;28;20189;-68
2021/09/25 04:04:48;;;;;;;9.70;8.77;;;17.50;99.90;;;;;;5051602;28;20231;-74
2021/09/25 04:07:14;;;;;;;9.83;8.97;;;17.50;99.90;;;;;;5033975;28;20173;-68
2021/09/25 04:09:40;;;;;;;9.90;8.90;;;17.60;99.90;;;;;;5052015;28;20401;-68
2021/09/25 04:12:06;;;;;;;10.47;9.57;;;17.60;99.90;;;;;;5033294;28;20444;-68
2021/09/25 04:14:31;;;;;;;9.67;8.77;;;17.60;99.90;;;;;;5051874;28;20196;-68
2021/09/25 04:16:57;;;;;;;10.20;9.30;;;17.60;99.90;;;;;;5051154;28;20884;-68
2021/09/25 04:19:23;;;;;;;9.97;9.03;;;17.60;99.90;;;;;;5051952;28;20257;-68
2021/09/25 04:21:50;;;;;;;9.50;8.53;;;17.60;99.90;;;;;;5051495;28;20177;-76
2021/09/25 04:24:16;;;;;;;9.00;8.20;;;17.60;99.90;;;;;;5034300;28;20182;-68
2021/09/25 04:26:41;;;;;;;9.80;8.73;;;17.70;99.90;;;;;;5054100;28;20411;-68
2021/09/25 04:29:07;;;;;;;11.00;9.80;;;17.70;99.90;;;;;;5054025;28;20423;-68
2021/09/25 04:31:34;;;;;;;11.10;9.50;;;17.70;99.90;;;;;;5055312;28;20257;-68
2021/09/25 04:34:01;;;;;;;10.47;9.47;;;17.70;99.90;;;;;;5055047;28;20416;-68
2021/09/25 04:36:27;;;;;;;11.80;9.83;;;17.70;99.90;;;;;;5055889;28;20430;-68
2021/09/25 04:38:53;;;;;;;12.10;9.73;;;17.70;99.90;;;;;;5054788;28;20503;-69
2021/09/25 04:41:19;;;;;;;10.50;9.50;;;17.70;99.90;;;;;;5037965;28;20803;-68
2021/09/25 04:43:44;;;;;;;9.80;8.77;;;17.70;99.90;;;;;;5049085;28;20240;-68
2021/09/25 04:46:10;;;;;;;11.00;9.90;;;17.60;99.90;;;;;;5034587;28;20479;-69
2021/09/25 04:48:36;;;;;;;10.90;9.80;;;17.60;99.90;;;;;;5035593;28;20182;-68
2021/09/25 04:51:02;;;;;;;11.83;10.73;;;17.50;99.90;;;;;;5034559;28;20432;-68
2021/09/25 04:53:30;;;;;;;10.77;9.73;;;17.50;99.90;;;;;;5035409;28;20764;-68
2021/09/25 04:55:57;;;;;;;11.03;9.73;;;17.60;99.90;;;;;;5034777;28;20420;-68
2021/09/25 04:58:28;;;;;;;8.90;8.10;;;17.60;99.90;;;;;;5047852;28;20550;-68
2021/09/25 05:00:55;;;;;;;8.97;8.17;;;17.60;99.90;;;;;;5037670;28;20892;-69
2021/09/25 05:03:21;;;;;;;9.87;8.97;;;17.60;99.90;;;;;;5055076;28;20396;-68
2021/09/25 05:05:46;;;;;;;13.03;11.73;;;17.60;99.90;;;;;;5054913;28;20759;-68
2021/09/25 05:08:12;;;;;;;13.13;11.00;;;17.60;99.90;;;;;;5054137;28;20178;-68
2021/09/25 05:10:38;;;;;;;11.13;10.00;;;17.60;99.90;;;;;;5054933;28;20633;-68
2021/09/25 05:13:03;;;;;;;11.97;10.30;;;17.70;99.90;;;;;;5054205;28;20217;-68
2021/09/25 05:15:29;;;;;;;10.10;9.20;;;17.70;99.90;;;;;;5054777;28;20223;-68
2021/09/25 05:17:56;;;;;;;9.90;9.10;;;17.70;99.90;;;;;;5054461;28;20622;-69
2021/09/25 05:20:21;;;;;;;11.10;10.07;;;17.70;99.90;;;;;;5054979;28;20756;-68
2021/09/25 05:22:47;;;;;;;10.37;9.37;;;17.60;99.90;;;;;;5055059;28;20510;-68
2021/09/25 05:25:13;;;;;;;10.60;9.50;;;17.70;99.90;;;;;;5045588;28;20357;-68
2021/09/25 05:27:40;;;;;;;10.93;9.90;;;17.70;99.90;;;;;;5034483;28;20213;-68
2021/09/25 05:30:06;;;;;;;12.00;10.17;;;17.70;99.90;;;;;;5016601;28;20416;-68
2021/09/25 05:32:32;;;;;;;11.20;10.10;;;17.70;99.90;;;;;;5017396;28;20471;-68
2021/09/25 05:34:58;;;;;;;10.67;9.60;;;17.70;99.90;;;;;;5034225;28;20405;-68
2021/09/25 05:37:24;;;;;;;13.13;10.10;;;17.70;99.90;;;;;;5033142;28;20417;-67
2021/09/25 05:39:54;;;;;;;11.53;10.53;;;17.70;99.90;;;;;;5016845;28;20673;-68
2021/09/25 05:42:25;;;;;;;10.00;9.10;;;17.70;99.90;;;;;;5034610;28;20178;-67
2021/09/25 05:44:51;;;;;;;10.80;9.73;;;17.70;99.90;;;;;;5034794;28;20448;-68
2021/09/25 05:47:17;;;;;;;10.60;9.57;;;17.70;99.90;;;;;;5034156;28;20487;-68
2021/09/25 05:49:46;;;;;;;9.77;8.87;;;17.80;99.90;;;;;;5034498;28;20416;-68
2021/09/25 05:52:12;;;;;;;11.00;10.00;;;17.80;99.90;;;;;;5033658;28;20206;-68
2021/09/25 05:54:38;;;;;;;12.57;10.40;;;17.80;99.90;;;;;;5034271;28;20444;-68
2021/09/25 05:57:05;;;;;;;10.50;9.40;;;17.80;99.90;;;;;;5033598;28;20406;-68
2021/09/25 05:59:31;;;;;;;11.30;9.13;;;17.80;99.90;;;;;;5034371;28;20413;-68
2021/09/25 06:01:56;;;;;;;11.07;9.87;;;17.90;99.90;;;;;;5045621;28;20415;-73
2021/09/25 06:04:22;;;;;;;11.67;10.60;;;17.90;99.90;;;;;;5016275;28;20978;-68
2021/09/25 06:06:48;;;;;;;11.03;9.30;;;17.90;99.90;;;;;;5042007;28;20182;-68
2021/09/25 06:09:13;;;;;;;11.93;10.73;;;17.90;99.90;;;;;;5053302;28;20610;-68
2021/09/25 06:11:39;;;;;;;12.10;11.00;;;17.90;99.90;;;;;;5053986;28;20209;-69
2021/09/25 06:14:05;;;;;;;11.00;9.90;;;18.00;99.90;;;;;;5053316;28;20178;-68
2021/09/25 06:16:31;;;;;;;10.37;9.43;;;18.00;99.90;;;;;;5044378;28;20179;-68
2021/09/25 06:18:56;;;;;;;10.10;9.10;;;18.00;99.90;;;;;;5033406;28;20198;-75
2021/09/25 06:21:22;;;;;;;12.13;9.87;;;18.00;99.90;;;;;;5033799;28;20178;-67
2021/09/25 06:23:48;;;;;;;10.70;9.57;;;18.10;99.90;;;;;;5053555;28;20297;-68
2021/09/25 06:26:14;;;;;;;9.83;9.00;;;18.10;99.90;;;;;;5046402;28;20191;-68
2021/09/25 06:28:40;;;;;;;10.00;9.00;;;18.10;99.90;;;;;;5053313;28;20190;-68
2021/09/25 06:31:05;;;;;;;9.83;8.60;;;18.10;99.90;;;;;;5035043;28;20770;-68
2021/09/25 06:33:31;;;;;;;14.03;10.00;;;18.20;99.90;;;;;;5049040;28;20178;-68
2021/09/25 06:35:57;;;;;;;9.77;8.77;;;18.20;99.90;;;;;;5034129;28;20190;-78
2021/09/25 06:38:23;;;;;;;11.20;9.93;;;18.20;99.90;;;;;;5015320;28;20185;-68
2021/09/25 06:40:48;;;;;;;12.00;10.20;;;18.20;99.90;;;;;;5046717;28;20224;-69
2021/09/25 06:43:14;;;;;;;9.80;8.80;;;18.30;99.90;;;;;;5038983;28;20185;-69
2021/09/25 06:45:40;;;;;;;10.27;9.27;;;18.30;99.90;;;;;;5032159;28;20309;-68
2021/09/25 06:48:07;;;;;;;10.27;9.27;;;18.30;99.90;;;;;;5032227;28;20177;-68
2021/09/25 06:50:33;;;;;;;10.57;9.47;;;18.30;99.90;;;;;;5033447;28;20413;-66
2021/09/25 06:52:59;;;;;;;10.97;9.87;;;18.30;99.90;;;;;;5031570;28;20491;-69
2021/09/25 06:55:26;;;;;;;11.27;10.23;;;18.40;99.90;;;;;;5032323;28;20476;-68
2021/09/25 06:57:52;;;;;;;11.63;10.30;;;18.40;99.90;;;;;;5032729;28;20449;-68
2021/09/25 07:00:17;;;;;;;13.03;11.73;;;18.40;99.90;;;;;;5035137;28;20185;-68
2021/09/25 07:02:43;;;;;;;13.20;10.77;;;18.40;99.90;;;;;;5032506;28;20229;-68
2021/09/25 07:05:09;;;;;;;10.90;9.90;;;18.50;99.90;;;;;;5031818;28;20198;-68
2021/09/25 07:07:35;;;;;;;10.87;9.77;;;18.50;99.90;;;;;;5031744;28;20224;-68
2021/09/25 07:10:03;;;;;;;11.57;10.37;;;18.40;99.90;;;;;;5031859;28;20500;-69
2021/09/25 07:12:29;;;;;;;12.50;10.90;;;18.40;99.90;;;;;;5033270;28;20445;-69
2021/09/25 07:14:56;;;;;;;11.13;10.00;;;18.40;99.90;;;;;;5040332;28;20436;-74
2021/09/25 07:17:23;;;;;;;11.10;9.97;;;18.40;99.90;;;;;;5047120;28;20634;-70
2021/09/25 07:19:50;;;;;;;10.50;9.50;;;18.50;99.90;;;;;;5046884;28;20420;-71
2021/09/25 07:22:16;;;;;;;9.93;8.70;;;18.40;99.90;;;;;;5052519;28;20424;-71
2021/09/25 07:24:42;;;;;;;10.70;9.60;;;18.50;99.90;;;;;;5051711;28;20972;-72
2021/09/25 07:27:08;;;;;;;11.23;10.00;;;18.40;99.90;;;;;;5041157;28;20635;-71
2021/09/25 07:29:34;;;;;;;10.80;9.70;;;18.50;99.90;;;;;;5053276;28;20503;-71
2021/09/25 07:32:00;;;;;;;10.47;9.33;;;18.40;99.90;;;;;;5047623;28;20197;-71
2021/09/25 07:34:27;;;;;;;10.40;9.50;;;18.40;99.90;;;;;;5035074;28;20424;-70
2021/09/25 07:36:53;;;;;;;10.17;8.90;;;18.40;99.90;;;;;;5032943;28;20401;-71
2021/09/25 07:39:19;;;;;;;10.93;9.57;;;18.40;99.90;;;;;;5032358;28;20401;-71
2021/09/25 07:41:45;;;;;;;12.33;8.97;;;18.40;99.90;;;;;;5032956;28;20532;-71
2021/09/25 07:44:11;;;;;;;10.20;9.20;;;18.30;99.90;;;;;;5039032;28;20518;-70
2021/09/25 07:46:37;;;;;;;9.67;8.70;;;18.30;99.90;;;;;;5041118;28;20222;-70
2021/09/25 07:49:05;;;;;;;11.20;8.97;;;18.20;99.90;;;;;;5040408;28;20185;-70
2021/09/25 07:51:31;;;;;;;9.70;8.67;;;18.20;99.90;;;;;;5043544;28;20452;-70
2021/09/25 07:53:57;;;;;;;9.83;8.83;;;18.20;99.90;;;;;;5042246;28;20424;-74
2021/09/25 07:56:23;;;;;;;10.30;9.07;;;18.30;99.90;;;;;;5034216;28;20917;-70
2021/09/25 07:58:49;;;;;;;11.20;8.60;;;18.20;99.90;;;;;;5032436;28;20167;-70
2021/09/25 08:01:15;;;;;;;12.03;9.10;;;18.30;99.90;;;;;;5013757;28;20212;-70
2021/09/25 08:03:41;;;;;;;11.63;8.60;;;18.30;99.90;;;;;;5032558;28;20437;-70
2021/09/25 08:06:08;;;;;;;9.07;8.27;;;18.30;99.90;;;;;;5032014;28;20178;-70
2021/09/25 08:08:34;;;;;;;9.57;8.00;;;18.40;99.90;;;;;;5032732;28;20424;-70
2021/09/25 08:11:00;;;;;;;10.27;9.17;;;18.40;99.90;;;;;;5036970;28;20412;-78
2021/09/25 08:13:26;;;;;;;10.87;9.23;;;18.40;99.90;;;;;;5031801;28;20558;-71
2021/09/25 08:15:52;;;;;;;11.60;8.53;;;18.40;99.90;;;;;;5032317;28;20692;-70
2021/09/25 08:18:18;;;;;;;9.30;8.40;;;18.50;99.90;;;;;;5045993;28;20914;-70
2021/09/25 08:20:44;;;;;;;10.00;9.03;;;18.50;99.90;;;;;;5042062;28;20182;-69
2021/09/25 08:23:10;;;;;;;9.70;8.70;;;18.50;99.90;;;;;;5034211;28;20516;-69
2021/09/25 08:25:35;;;;;;;9.77;8.80;;;18.50;99.90;;;;;;5038989;28;20182;-69
2021/09/25 08:28:01;;;;;;;9.70;8.77;;;18.50;99.90;;;;;;5016247;28;20185;-70
2021/09/25 08:30:27;;;;;;;9.17;8.23;;;18.50;99.90;;;;;;5032380;28;20253;-69
2021/09/25 08:32:53;;;;;;;9.73;8.00;;;18.50;99.90;;;;;;5032272;28;20289;-69
2021/09/25 08:35:21;;;;;;;8.77;7.97;;;18.60;99.90;;;;;;5031193;28;20178;-69
2021/09/25 08:37:53;;;;;;;8.77;7.87;;;18.60;99.90;;;;;;5014439;28;20191;-69
2021/09/25 08:40:21;;;;;;;9.27;8.37;;;18.60;99.90;;;;;;5051225;28;20435;-70
2021/09/25 08:42:48;;;;;;;10.27;8.53;;;18.60;99.90;;;;;;5052151;28;20904;-69
2021/09/25 08:45:14;;;;;;;8.70;7.33;;;18.70;99.90;;;;;;5045392;28;20420;-70
2021/09/25 08:47:40;;;;;;;8.77;7.97;;;18.70;99.90;;;;;;5033520;28;20421;-72
2021/09/25 08:50:09;;;;;;;10.17;8.60;;;18.80;99.90;;;;;;5046433;28;20446;-70
2021/09/25 08:52:35;;;;;;;8.33;7.63;;;18.80;99.90;;;;;;5044059;28;20453;-69
2021/09/25 08:55:01;;;;;;;8.30;7.50;;;18.80;99.90;;;;;;5042920;28;20434;-76
2021/09/25 08:57:27;;;;;;;8.00;7.30;;;18.80;99.90;;;;;;5032382;28;20193;-69
2021/09/25 08:59:53;;;;;;;8.47;7.67;;;18.90;99.90;;;;;;5032059;28;20409;-70
2021/09/25 09:02:20;;;;;;;9.10;8.20;;;18.90;99.90;;;;;;5031434;28;20178;-70
2021/09/25 09:04:51;;;;;;;9.20;8.30;;;19.00;99.90;;;;;;5032104;28;20637;-70
2021/09/25 09:07:27;;;;;;;11.33;9.20;;;19.00;99.90;;;;;;5025497;28;20432;-70
2021/09/25 09:09:53;;;;;;;9.60;8.70;;;19.10;99.90;;;;;;5032064;28;20900;-69
2021/09/25 09:12:27;;;;;;;9.87;8.87;;;19.10;99.90;;;;;;5032635;28;20457;-69
2021/09/25 09:14:55;;;;;;;11.77;8.80;;;19.10;99.90;;;;;;5035427;28;20413;-69
2021/09/25 09:17:32;;;;;;;9.73;8.73;;;19.20;99.90;;;;;;5035182;28;20980;-69
2021/09/25 09:20:07;;;;;;;9.53;8.63;;;19.20;99.90;;;;;;5035447;28;20407;-69
2021/09/25 09:22:33;;;;;;;8.50;7.70;;;19.20;99.90;;;;;;5036407;28;20939;-70
2021/09/25 09:25:01;;;;;;;8.40;7.70;;;19.20;99.90;;;;;;5053436;28;20511;-70
2021/09/25 09:27:28;;;;;;;9.20;8.27;;;19.30;99.90;;;;;;5054336;28;20250;-69
2021/09/25 09:30:08;;;;;;;8.93;8.13;;;19.30;99.90;;;;;;5037986;28;20458;-70
2021/09/25 09:32:39;;;;;;;9.17;8.50;;;19.30;99.90;;;;;;5049374;28;20543;-69
2021/09/25 09:35:10;;;;;;;9.60;8.23;;;19.40;99.90;;;;;;5036118;28;20455;-78
2021/09/25 09:37:36;;;;;;;8.30;7.57;;;19.40;99.90;;;;;;5054592;28;20768;-69
2021/09/25 09:40:04;;;;;;;10.30;8.10;;;19.40;99.90;;;;;;5054355;28;20413;-70
2021/09/25 09:42:44;;;;;;;8.57;7.87;;;19.50;99.90;;;;;;5052890;28;20197;-70
2021/09/25 09:45:09;;;;;;;9.33;8.33;;;19.50;99.90;;;;;;5046622;28;20841;-70
2021/09/25 09:47:46;;;;;;;8.47;7.57;;;19.50;99.90;;;;;;5034594;28;20469;-69
2021/09/25 09:50:15;;;;;;;7.83;7.23;;;19.50;99.90;;;;;;5033620;28;20208;-70
2021/09/25 09:52:41;;;;;;;8.80;7.80;;;19.50;99.90;;;;;;5019454;28;20453;-70
2021/09/25 09:55:07;;;;;;;8.80;8.10;;;19.60;99.90;;;;;;5054143;28;20850;-70
2021/09/25 09:57:34;;;;;;;7.97;7.27;;;19.60;99.90;;;;;;5036289;28;20257;-70
2021/09/25 10:00:00;;;;;;;9.63;7.70;;;19.60;99.90;;;;;;5054627;28;20487;-70
2021/09/25 10:02:26;;;;;;;8.50;7.70;;;19.70;99.90;;;;;;5051740;28;20460;-69
2021/09/25 10:04:52;;;;;;;9.07;8.27;;;19.70;99.90;;;;;;5054627;28;20500;-70
2021/09/25 10:07:18;;;;;;;9.33;8.17;;;19.70;99.90;;;;;;5051747;28;20408;-70
2021/09/25 10:09:44;;;;;;;8.10;7.40;;;19.70;99.90;;;;;;5048939;28;20178;-70
2021/09/25 10:12:16;;;;;;;8.30;7.60;;;19.70;99.90;;;;;;5034042;28;20532;-70
2021/09/25 10:14:46;;;;;;;8.60;7.80;;;19.70;99.90;;;;;;5034021;28;20190;-69
2021/09/25 10:17:14;;;;;;;8.40;7.70;;;19.80;99.90;;;;;;5015938;28;20788;-70
2021/09/25 10:19:41;;;;;;;8.33;7.63;;;19.80;99.90;;;;;;5034043;28;20883;-70
2021/09/25 10:22:09;;;;;;;8.30;7.50;;;19.80;99.90;;;;;;5033875;28;20798;-70
2021/09/25 10:24:56;;;;;;;8.20;7.50;;;19.80;99.90;;;;;;5033828;28;20889;-69
2021/09/25 10:27:28;;;;;;;8.40;7.60;;;19.80;99.90;;;;;;5032815;28;20417;-70
2021/09/25 10:29:54;;;;;;;7.57;6.87;;;19.80;99.90;;;;;;5034263;28;20801;-69
2021/09/25 10:32:23;;;;;;;7.73;7.13;;;19.90;99.90;;;;;;5033374;28;20457;-70
2021/09/25 10:35:11;;;;;;;8.00;7.33;;;19.90;99.90;;;;;;5034115;28;20409;-70
2021/09/25 10:37:44;;;;;;;8.77;8.10;;;19.90;99.90;;;;;;5016511;28;20417;-70
2021/09/25 10:40:15;;;;;;;9.00;8.30;;;20.00;99.90;;;;;;5033411;28;20416;-70
2021/09/25 10:42:43;;;;;;;9.20;8.47;;;19.90;99.90;;;;;;5033666;28;20913;-70
2021/09/25 10:45:43;;;;;;;8.33;7.83;;;20.00;99.90;;;;;;5033424;28;20419;-72
2021/09/25 10:48:24;;;;;;;9.03;8.33;;;20.00;99.90;;;;;;4989209;28;20451;-71
2021/09/25 10:50:54;;;;;;;8.20;7.60;;;20.10;99.90;;;;;;5034164;28;20398;-71
2021/09/25 10:53:36;;;;;;;7.63;6.93;;;20.20;99.90;;;;;;5032734;28;20540;-71
2021/09/25 10:56:14;;;;;;;7.30;6.73;;;20.40;99.90;;;;;;5033912;28;20763;-71
2021/09/25 10:58:40;;;;;;;7.77;7.20;;;20.50;99.90;;;;;;5033576;28;20408;-71
2021/09/25 11:01:18;;;;;;;7.93;7.07;;;20.60;99.90;;;;;;5033591;28;20437;-71
2021/09/25 11:03:53;;;;;;;7.30;6.80;;;20.70;99.90;;;;;;5033570;28;20408;-71
2021/09/25 11:06:38;;;;;;;6.37;5.87;;;20.80;99.90;;;;;;5032875;28;20413;-71
2021/09/25 11:09:14;;;;;;;8.60;7.80;;;21.00;99.90;;;;;;5033451;28;20409;-71
2021/09/25 11:11:46;;;;;;;8.10;7.40;;;21.10;99.90;;;;;;5033090;28;20449;-71
2021/09/25 11:14:38;;;;;;;7.13;6.63;;;21.20;99.90;;;;;;5032948;28;20856;-71
2021/09/25 11:17:16;;;;;;;6.90;6.30;;;21.20;99.90;;;;;;4995109;28;20497;-71
2021/09/25 11:19:58;;;;;;;8.10;7.47;;;21.30;99.90;;;;;;5015477;28;20386;-71
2021/09/25 11:22:34;;;;;;;7.77;7.23;;;21.40;99.90;;;;;;5032640;28;20768;-71
2021/09/25 11:25:07;;;;;;;9.20;8.60;;;21.40;99.90;;;;;;5015632;28;20393;-71
2021/09/25 11:27:41;;;;;;;8.50;7.90;;;21.50;99.90;;;;;;5032558;28;20440;-71
2021/09/25 11:30:18;;;;;;;8.10;7.60;;;21.40;99.90;;;;;;5015487;28;20451;-71
2021/09/25 11:32:51;;;;;;;9.47;8.77;;;21.40;99.90;;;;;;5033022;28;20428;-71
2021/09/25 11:35:23;;;;;;;8.70;8.10;;;21.40;99.90;;;;;;5031832;28;20602;-71
2021/09/25 11:38:00;;;;;;;9.20;8.30;;;21.40;99.90;;;;;;5032974;28;20897;-71
2021/09/25 11:40:35;;;;;;;7.37;6.77;;;21.50;99.90;;;;;;5032397;28;20397;-71
2021/09/25 11:43:06;;;;;;;8.93;8.23;;;21.50;99.90;;;;;;5015210;28;20422;-71
2021/09/25 11:45:35;;;;;;;19.73;17.70;;;21.60;99.90;;;;;;5032297;28;20556;-71
2021/09/25 11:48:03;;;;;;;89.17;74.40;;;21.60;99.90;;;;;;5032918;28;20446;-71
2021/09/25 11:50:33;;;;;;;14.63;13.23;;;21.60;99.90;;;;;;5014399;28;20413;-71
2021/09/25 11:53:01;;;;;;;12.53;11.27;;;21.70;99.90;;;;;;5032705;28;20452;-71
2021/09/25 11:55:29;;;;;;;11.97;10.77;;;21.70;99.90;;;;;;5033562;28;20770;-71
2021/09/25 11:58:05;;;;;;;12.87;11.67;;;21.80;99.70;;;;;;5032915;28;20948;-71
2021/09/25 12:00:40;;;;;;;14.93;13.43;;;21.80;99.60;;;;;;5032360;28;20397;-71
2021/09/25 12:03:08;;;;;;;17.60;15.20;;;21.80;99.70;;;;;;5032737;28;20405;-71
2021/09/25 12:05:39;;;;;;;19.53;17.33;;;21.90;99.30;;;;;;5015311;28;20563;-71
2021/09/25 12:08:10;;;;;;;18.80;16.83;;;21.90;98.90;;;;;;5032541;28;20781;-71
2021/09/25 12:10:45;;;;;;;18.17;16.33;;;22.00;98.90;;;;;;5031545;28;20409;-71
2021/09/25 12:13:24;;;;;;;19.70;17.63;;;22.00;98.80;;;;;;5014811;28;20440;-71
2021/09/25 12:15:52;;;;;;;29.27;25.00;;;22.10;98.70;;;;;;5015495;28;20496;-70
2021/09/25 12:18:25;;;;;;;15.00;13.40;;;22.10;98.80;;;;;;5014279;28;20753;-72
2021/09/25 12:20:57;;;;;;;13.93;12.53;;;22.10;98.40;;;;;;5032362;28;20424;-71
2021/09/25 12:23:25;;;;;;;15.03;13.63;;;22.20;98.30;;;;;;5033720;28;20881;-72
2021/09/25 12:25:52;;;;;;;10.87;9.97;;;22.20;98.20;;;;;;5033256;28;20421;-71
2021/09/25 12:28:34;;;;;;;12.60;11.40;;;22.20;98.40;;;;;;5032358;28;20397;-71
2021/09/25 12:31:07;;;;;;;11.20;10.10;;;22.20;98.50;;;;;;5032515;28;20772;-71
2021/09/25 12:33:44;;;;;;;9.50;8.70;;;22.30;98.00;;;;;;5031479;28;20936;-71
2021/09/25 12:36:11;;;;;;;8.67;7.97;;;22.30;98.00;;;;;;5032730;28;20412;-71
2021/09/25 12:38:40;;;;;;;8.67;7.97;;;22.30;98.10;;;;;;5031627;28;20444;-71
2021/09/25 12:41:20;;;;;;;8.00;7.40;;;22.30;98.80;;;;;;5032428;28;20437;-71
2021/09/25 12:43:52;;;;;;;9.40;8.60;;;22.30;98.80;;;;;;5031321;28;20409;-71